createdAt,value
2019-01-04T00:00:38.811Z,18.03
2019-01-04T00:03:09.070Z,16.43
2019-01-04T00:05:39.323Z,12.10
2019-01-04T00:08:09.522Z,15.07
2019-01-04T00:10:39.754Z,16.00
2019-01-04T00:13:09.946Z,16.13
2019-01-04T00:15:40.408Z,16.17
2019-01-04T00:18:10.626Z,15.90
2019-01-04T00:20:41.089Z,13.70
2019-01-04T00:23:11.286Z,17.23
2019-01-04T00:25:41.739Z,17.30
2019-01-04T00:28:11.971Z,15.70
2019-01-04T00:30:42.426Z,14.30
2019-01-04T00:33:12.654Z,12.90
2019-01-04T00:35:43.899Z,18.23
2019-01-04T00:38:31.019Z,14.13
2019-01-04T00:41:07.441Z,14.27
2019-01-04T00:43:43.627Z,18.53
2019-01-04T00:46:17.478Z,14.30
2019-01-04T00:48:51.184Z,17.53
2019-01-04T00:51:34.765Z,18.90
2019-01-04T00:54:11.645Z,17.73
2019-01-04T00:57:15.800Z,17.90
2019-01-04T01:03:34.807Z,21.13
2019-01-04T01:06:17.914Z,18.13
2019-01-04T01:09:08.407Z,22.37
2019-01-04T01:12:04.691Z,21.37
2019-01-04T01:15:10.981Z,20.07
2019-01-04T01:18:05.639Z,22.47
2019-01-04T01:20:59.614Z,21.50
2019-01-04T01:23:58.179Z,20.67
2019-01-04T01:26:49.135Z,18.17
2019-01-04T01:29:44.406Z,21.07
2019-01-04T01:32:40.141Z,22.27
2019-01-04T01:35:45.009Z,22.20
2019-01-04T01:38:42.291Z,20.60
2019-01-04T01:41:41.773Z,22.93
2019-01-04T01:44:23.944Z,24.73
2019-01-04T01:46:57.214Z,25.33
2019-01-04T01:49:45.287Z,24.47
2019-01-04T01:52:18.581Z,25.10
2019-01-04T01:54:48.814Z,24.43
2019-01-04T01:57:19.238Z,24.57
2019-01-04T01:59:49.462Z,23.83
2019-01-04T02:02:19.656Z,24.07
2019-01-04T02:04:50.101Z,27.93
2019-01-04T02:07:20.526Z,28.07
2019-01-04T02:09:50.749Z,22.90
2019-01-04T02:12:20.937Z,28.77
2019-01-04T02:14:51.167Z,26.37
2019-01-04T02:17:21.371Z,23.83
2019-01-04T02:19:51.589Z,22.80
2019-01-04T02:22:21.792Z,26.07
2019-01-04T02:24:52.006Z,28.17
2019-01-04T02:27:22.428Z,24.67
2019-01-04T02:29:52.650Z,28.13
2019-01-04T02:32:22.834Z,24.60
2019-01-04T02:34:53.071Z,26.73
2019-01-04T02:37:23.276Z,26.07
2019-01-04T02:39:53.501Z,22.80
2019-01-04T02:42:23.694Z,25.80
2019-01-04T02:44:54.145Z,28.63
2019-01-04T02:47:24.350Z,31.53
2019-01-04T02:49:54.579Z,36.37
2019-01-04T02:52:24.776Z,37.13
2019-01-04T02:54:55.011Z,35.50
2019-01-04T02:57:25.230Z,36.77
2019-01-04T02:59:55.455Z,44.30
2019-01-04T03:02:25.650Z,46.57
2019-01-04T03:04:56.103Z,47.23
2019-01-04T03:07:26.299Z,45.27
2019-01-04T03:09:56.525Z,40.33
2019-01-04T03:12:26.711Z,45.53
2019-01-04T03:14:57.188Z,44.17
2019-01-04T03:17:27.392Z,46.63
2019-01-04T03:19:57.576Z,50.77
2019-01-04T03:22:28.047Z,49.83
2019-01-04T03:24:58.258Z,41.23
2019-01-04T03:27:28.765Z,40.90
2019-01-04T03:29:59.212Z,41.73
2019-01-04T03:32:29.687Z,52.60
2019-01-04T03:34:59.942Z,44.70
2019-01-04T03:37:30.165Z,47.47
2019-01-04T03:40:00.368Z,41.53
2019-01-04T03:42:30.676Z,46.97
2019-01-04T03:45:01.109Z,46.73
2019-01-04T03:47:31.554Z,47.20
2019-01-04T03:50:01.753Z,39.63
2019-01-04T03:52:31.974Z,41.93
2019-01-04T03:55:02.202Z,47.63
2019-01-04T03:57:32.426Z,44.73
2019-01-04T04:00:02.709Z,44.53
2019-01-04T04:02:33.163Z,45.17
2019-01-04T04:05:04.067Z,47.50
2019-01-04T04:07:34.288Z,43.70
2019-01-04T04:10:06.454Z,45.37
2019-01-04T04:12:36.670Z,43.47
2019-01-04T04:15:06.863Z,48.77
2019-01-04T04:17:37.087Z,44.67
2019-01-04T04:20:07.761Z,49.40
2019-01-04T04:22:38.000Z,51.67
2019-01-04T04:25:08.419Z,49.60
2019-01-04T04:27:38.639Z,47.73
2019-01-04T04:30:08.894Z,44.07
2019-01-04T04:32:39.366Z,46.00
2019-01-04T04:35:09.563Z,48.50
2019-01-04T04:37:39.783Z,41.70
2019-01-04T04:40:10.028Z,49.37
2019-01-04T04:42:40.456Z,49.47
2019-01-04T04:45:10.676Z,47.00
2019-01-04T04:47:40.899Z,49.30
2019-01-04T04:50:11.135Z,49.33
2019-01-04T04:52:41.361Z,45.23
2019-01-04T04:55:11.814Z,47.53
2019-01-04T04:57:42.239Z,48.60
2019-01-04T05:00:12.462Z,44.13
2019-01-04T05:02:42.689Z,46.90
2019-01-04T05:05:12.927Z,47.87
2019-01-04T05:07:43.150Z,39.70
2019-01-04T05:10:13.377Z,44.40
2019-01-04T05:12:43.826Z,44.17
2019-01-04T05:15:14.044Z,44.20
2019-01-04T05:17:44.252Z,41.87
2019-01-04T05:20:14.462Z,42.07
2019-01-04T05:22:44.662Z,42.90
2019-01-04T05:25:14.881Z,43.47
2019-01-04T05:27:45.087Z,47.83
2019-01-04T05:30:15.310Z,45.33
2019-01-04T05:32:45.502Z,39.60
2019-01-04T05:35:15.732Z,43.57
2019-01-04T05:37:46.162Z,44.40
2019-01-04T05:40:16.639Z,48.50
2019-01-04T05:42:46.849Z,48.43
2019-01-04T05:45:17.071Z,49.13
2019-01-04T05:47:47.297Z,46.43
2019-01-04T05:50:17.512Z,44.87
2019-01-04T05:52:47.738Z,49.37
2019-01-04T05:55:17.978Z,50.20
2019-01-04T05:57:48.192Z,51.10
2019-01-04T06:00:18.423Z,48.73
2019-01-04T06:02:48.864Z,49.00
2019-01-04T06:05:19.089Z,51.90
2019-01-04T06:07:49.278Z,51.03
2019-01-04T06:10:19.500Z,49.40
2019-01-04T06:12:49.728Z,44.77
2019-01-04T06:15:19.948Z,49.10
2019-01-04T06:17:50.146Z,48.00
2019-01-04T06:20:20.343Z,49.03
2019-01-04T06:22:50.578Z,51.47
2019-01-04T06:25:20.808Z,44.60
2019-01-04T06:27:51.035Z,44.20
2019-01-04T06:30:21.489Z,37.43
2019-01-04T06:32:51.955Z,40.40
2019-01-04T06:35:22.144Z,40.27
2019-01-04T06:37:52.374Z,35.87
2019-01-04T06:40:22.593Z,32.13
2019-01-04T06:42:52.814Z,29.97
2019-01-04T06:45:23.016Z,24.13
2019-01-04T06:47:53.230Z,30.23
2019-01-04T06:50:23.417Z,23.07
2019-01-04T06:52:53.651Z,23.67
2019-01-04T06:55:51.147Z,24.70
2019-01-04T06:58:21.599Z,21.83
2019-01-04T07:00:51.795Z,20.63
2019-01-04T07:03:22.028Z,24.93
2019-01-04T07:05:52.723Z,20.67
2019-01-04T07:08:23.202Z,26.03
2019-01-04T07:10:53.389Z,21.90
2019-01-04T07:13:23.614Z,30.40
2019-01-04T07:15:53.982Z,24.20
2019-01-04T07:18:24.354Z,24.63
2019-01-04T07:20:54.542Z,23.30
2019-01-04T07:23:25.005Z,26.80
2019-01-04T07:25:55.193Z,28.47
2019-01-04T07:28:25.422Z,23.87
2019-01-04T07:30:55.615Z,28.90
2019-01-04T07:33:25.854Z,26.83
2019-01-04T07:35:56.064Z,25.60
2019-01-04T07:38:26.281Z,27.87
2019-01-04T07:40:56.750Z,22.73
2019-01-04T07:43:26.950Z,27.57
2019-01-04T07:45:57.174Z,25.30
2019-01-04T07:48:27.366Z,29.13
2019-01-04T07:50:57.827Z,27.50
2019-01-04T07:53:28.028Z,29.83
2019-01-04T07:55:58.245Z,25.83
2019-01-04T07:58:28.674Z,28.97
2019-01-04T08:00:58.894Z,31.97
2019-01-04T08:03:29.090Z,31.70
2019-01-04T08:05:59.340Z,33.90
2019-01-04T08:08:29.747Z,32.43
2019-01-04T08:10:59.970Z,32.53
2019-01-04T08:13:30.167Z,32.90
2019-01-04T08:16:00.676Z,35.77
2019-01-04T08:18:30.954Z,32.77
2019-01-04T08:21:01.165Z,35.43
2019-01-04T08:23:31.378Z,36.63
2019-01-04T08:26:01.806Z,33.83
2019-01-04T08:28:32.028Z,33.23
2019-01-04T08:31:02.238Z,37.03
2019-01-04T08:33:32.456Z,34.27
2019-01-04T08:36:02.662Z,34.17
2019-01-04T08:38:33.103Z,33.73
2019-01-04T08:41:03.330Z,34.97
2019-01-04T08:43:33.791Z,34.57
2019-01-04T08:46:04.018Z,39.97
2019-01-04T08:48:34.477Z,35.03
2019-01-04T08:51:04.933Z,36.57
2019-01-04T08:53:56.950Z,32.73
2019-01-04T08:56:31.786Z,34.83
2019-01-04T08:59:02.097Z,30.40
2019-01-04T09:01:32.531Z,33.23
2019-01-04T09:04:02.766Z,32.13
2019-01-04T09:06:33.038Z,37.00
2019-01-04T09:09:04.362Z,30.90
2019-01-04T09:11:34.795Z,31.80
2019-01-04T09:14:05.006Z,31.07
2019-01-04T09:16:35.440Z,33.30
2019-01-04T09:19:05.916Z,34.00
2019-01-04T09:21:36.122Z,23.93
2019-01-04T09:24:06.419Z,28.47
2019-01-04T09:26:36.917Z,26.13
2019-01-04T09:29:07.140Z,25.57
2019-01-04T09:31:37.598Z,24.83
2019-01-04T09:34:07.798Z,21.43
2019-01-04T09:36:38.030Z,25.03
2019-01-04T09:39:08.231Z,22.10
2019-01-04T09:41:38.524Z,20.80
2019-01-04T09:44:08.723Z,24.10
2019-01-04T09:46:38.950Z,24.13
2019-01-04T09:49:09.164Z,22.90
2019-01-04T09:51:39.390Z,22.17
2019-01-04T09:54:09.582Z,22.03
2019-01-04T09:56:39.817Z,23.47
2019-01-04T09:59:10.011Z,23.97
2019-01-04T10:01:40.238Z,24.00
2019-01-04T10:04:10.442Z,21.87
2019-01-04T10:06:40.653Z,22.70
2019-01-04T10:09:11.111Z,25.33
2019-01-04T10:11:41.308Z,22.10
2019-01-04T10:14:11.774Z,21.43
2019-01-04T10:16:42.226Z,19.50
2019-01-04T10:19:12.445Z,22.83
2019-01-04T10:21:42.644Z,23.73
2019-01-04T10:24:13.094Z,22.43
2019-01-04T10:26:43.385Z,19.30
2019-01-04T10:29:13.582Z,23.00
2019-01-04T10:31:43.811Z,23.87
2019-01-04T10:34:14.047Z,20.67
2019-01-04T10:36:44.274Z,24.93
2019-01-04T10:39:14.474Z,20.27
2019-01-04T10:41:44.950Z,19.73
2019-01-04T10:44:15.148Z,21.10
2019-01-04T10:46:45.382Z,21.33
2019-01-04T10:49:15.574Z,23.37
2019-01-04T10:51:46.030Z,20.63
2019-01-04T10:54:16.230Z,23.10
2019-01-04T10:56:46.450Z,23.57
2019-01-04T10:59:16.646Z,26.77
2019-01-04T11:01:46.870Z,24.03
2019-01-04T11:04:17.063Z,23.37
2019-01-04T11:06:47.286Z,23.87
2019-01-04T11:09:17.487Z,21.60
2019-01-04T11:11:47.958Z,23.33
2019-01-04T11:14:18.150Z,22.80
2019-01-04T11:16:48.611Z,20.53
2019-01-04T11:19:18.810Z,19.30
2019-01-04T11:21:48.997Z,23.07
2019-01-04T11:24:28.482Z,20.27
2019-01-04T11:26:58.819Z,20.33
2019-01-04T11:29:47.166Z,19.87
2019-01-04T11:32:26.362Z,18.70
2019-01-04T11:35:13.654Z,20.60
2019-01-04T11:37:55.758Z,18.47
2019-01-04T11:40:59.882Z,20.87
2019-01-04T11:43:58.473Z,18.10
2019-01-04T11:46:37.503Z,21.13
2019-01-04T11:49:13.410Z,19.00
2019-01-04T11:51:49.871Z,18.27
2019-01-04T11:54:20.345Z,16.53
2019-01-04T11:56:50.572Z,18.67
2019-01-04T11:59:20.772Z,19.47
2019-01-04T12:01:50.994Z,22.83
2019-01-04T12:04:21.202Z,16.53
2019-01-04T12:06:51.431Z,18.77
2019-01-04T12:09:21.854Z,17.37
2019-01-04T12:11:52.439Z,18.97
2019-01-04T12:14:22.692Z,19.63
2019-01-04T12:16:53.141Z,21.20
2019-01-04T12:19:23.366Z,19.80
2019-01-04T12:21:53.591Z,22.67
2019-01-04T12:24:23.788Z,20.97
2019-01-04T12:26:54.012Z,22.37
2019-01-04T12:29:24.202Z,18.87
2019-01-04T12:31:54.672Z,25.63
2019-01-04T12:34:24.869Z,21.77
2019-01-04T12:36:55.085Z,20.77
2019-01-04T12:39:25.287Z,25.17
2019-01-04T12:41:55.514Z,21.07
2019-01-04T12:44:25.711Z,22.00
2019-01-04T12:46:56.166Z,18.50
2019-01-04T12:49:26.382Z,21.63
2019-01-04T12:51:56.584Z,24.67
2019-01-04T12:54:27.050Z,20.40
2019-01-04T12:56:57.477Z,23.57
2019-01-04T12:59:27.942Z,22.40
2019-01-04T13:01:58.375Z,25.93
2019-01-04T13:04:28.598Z,19.07
2019-01-04T13:06:58.831Z,19.23
2019-01-04T13:09:29.054Z,16.63
2019-01-04T13:11:59.487Z,19.90
2019-01-04T13:14:29.720Z,16.80
2019-01-04T13:17:00.141Z,21.33
2019-01-04T13:19:30.362Z,23.33
2019-01-04T13:22:00.591Z,22.40
2019-01-04T13:24:30.811Z,19.43
2019-01-04T13:27:01.015Z,29.40
2019-01-04T13:29:31.470Z,27.83
2019-01-04T13:32:01.691Z,25.10
2019-01-04T13:34:32.598Z,23.30
2019-01-04T13:37:02.782Z,23.97
2019-01-04T13:39:33.017Z,23.73
2019-01-04T13:42:03.301Z,26.80
2019-01-04T13:44:34.361Z,25.83
2019-01-04T13:47:04.738Z,31.00
2019-01-04T13:49:35.065Z,26.23
2019-01-04T13:52:05.261Z,30.03
2019-01-04T13:54:35.511Z,28.50
2019-01-04T13:57:05.707Z,29.60
2019-01-04T13:59:36.150Z,36.10
2019-01-04T14:02:06.373Z,31.60
2019-01-04T14:04:36.609Z,33.53
2019-01-04T14:07:07.081Z,31.03
2019-01-04T14:09:37.498Z,35.47
2019-01-04T14:12:07.727Z,32.80
2019-01-04T14:14:37.930Z,30.23
2019-01-04T14:17:08.151Z,36.30
2019-01-04T14:19:38.351Z,32.83
2019-01-04T14:22:08.579Z,36.00
2019-01-04T14:24:38.768Z,34.87
2019-01-04T14:27:09.295Z,32.57
2019-01-04T14:29:39.483Z,35.60
2019-01-04T14:32:09.726Z,37.70
2019-01-04T14:34:39.935Z,31.67
2019-01-04T14:37:10.323Z,36.00
2019-01-04T14:39:40.519Z,36.50
2019-01-04T14:42:10.742Z,36.17
2019-01-04T14:44:40.959Z,37.03
2019-01-04T14:47:11.162Z,32.40
2019-01-04T14:49:41.626Z,33.00
2019-01-04T14:52:12.368Z,35.17
2019-01-04T14:54:42.783Z,32.90
2019-01-04T14:57:12.958Z,33.27
2019-01-04T14:59:43.187Z,32.47
2019-01-04T15:02:13.463Z,35.40
2019-01-04T15:04:43.929Z,34.57
2019-01-04T15:07:14.357Z,32.03
2019-01-04T15:09:44.809Z,30.60
2019-01-04T15:12:15.006Z,36.90
2019-01-04T15:14:45.235Z,32.20
2019-01-04T15:17:15.472Z,33.50
2019-01-04T15:19:45.722Z,31.83
2019-01-04T15:22:15.923Z,35.30
2019-01-04T15:24:46.145Z,30.33
2019-01-04T15:27:16.642Z,36.50
2019-01-04T15:29:46.862Z,35.10
2019-01-04T15:32:17.362Z,39.80
2019-01-04T15:34:47.588Z,32.47
2019-01-04T15:37:17.834Z,32.37
2019-01-04T15:39:48.030Z,35.77
2019-01-04T15:42:21.124Z,39.10
2019-01-04T15:44:51.383Z,41.53
2019-01-04T15:47:21.583Z,39.80
2019-01-04T15:49:55.025Z,42.70
2019-01-04T15:52:26.212Z,43.60
2019-01-04T15:54:59.394Z,42.87
2019-01-04T15:57:29.657Z,39.17
2019-01-04T16:00:00.093Z,46.43
2019-01-04T16:02:30.407Z,49.40
2019-01-04T16:05:00.836Z,46.43
2019-01-04T16:07:31.055Z,44.80
2019-01-04T16:10:01.264Z,43.93
2019-01-04T16:12:31.542Z,43.33
2019-01-04T16:15:01.740Z,45.83
2019-01-04T16:17:32.197Z,47.77
2019-01-04T16:20:02.392Z,50.53
2019-01-04T16:22:32.622Z,50.00
2019-01-04T16:25:03.055Z,48.40
2019-01-04T16:27:33.518Z,50.93
2019-01-04T16:30:04.470Z,45.80
2019-01-04T16:32:34.934Z,49.30
2019-01-04T16:35:05.505Z,45.70
2019-01-04T16:37:35.727Z,48.50
2019-01-04T16:40:08.114Z,46.20
2019-01-04T16:42:38.558Z,49.10
2019-01-04T16:45:09.017Z,42.87
2019-01-04T16:47:39.489Z,46.43
2019-01-04T16:50:10.019Z,47.33
2019-01-04T16:52:40.222Z,42.80
2019-01-04T16:55:10.438Z,44.33
2019-01-04T16:57:40.869Z,45.77
2019-01-04T17:00:11.596Z,45.10
2019-01-04T17:02:41.786Z,50.77
2019-01-04T17:05:12.005Z,47.13
2019-01-04T17:07:42.440Z,49.40
2019-01-04T17:10:12.663Z,49.27
2019-01-04T17:12:42.858Z,48.33
2019-01-04T17:15:13.157Z,43.53
2019-01-04T17:17:43.581Z,39.90
2019-01-04T17:20:14.038Z,40.60
2019-01-04T17:22:44.239Z,37.17
2019-01-04T17:25:14.754Z,38.97
2019-01-04T17:27:45.232Z,47.77
2019-01-04T17:30:15.450Z,41.33
2019-01-04T17:32:45.650Z,39.53
2019-01-04T17:35:15.875Z,39.40
2019-01-04T17:37:46.305Z,43.30
2019-01-04T17:40:16.533Z,41.63
2019-01-04T17:42:46.762Z,47.60
2019-01-04T17:45:17.210Z,44.33
2019-01-04T17:47:47.419Z,48.07
2019-01-04T17:50:17.879Z,44.87
2019-01-04T17:52:48.323Z,45.13
2019-01-04T17:55:18.547Z,45.77
2019-01-04T17:57:48.761Z,44.23
2019-01-04T18:00:19.206Z,45.73
2019-01-04T18:02:49.435Z,45.50
2019-01-04T18:05:19.872Z,40.93
2019-01-04T18:07:50.093Z,41.50
2019-01-04T18:10:20.293Z,38.60
2019-01-04T18:12:50.715Z,43.00
2019-01-04T18:15:21.171Z,38.53
2019-01-04T18:17:51.396Z,40.47
2019-01-04T18:20:21.620Z,39.90
2019-01-04T18:22:51.830Z,40.43
2019-01-04T18:25:22.288Z,38.77
2019-01-04T18:27:52.482Z,39.20
2019-01-04T18:30:22.934Z,37.63
2019-01-04T18:32:53.159Z,37.60
2019-01-04T18:35:23.608Z,46.43
2019-01-04T18:37:53.834Z,40.07
2019-01-04T18:40:24.058Z,38.93
2019-01-04T18:42:54.505Z,36.43
2019-01-04T18:45:24.731Z,41.63
2019-01-04T18:47:55.155Z,38.97
2019-01-04T18:50:25.602Z,38.90
2019-01-04T18:52:55.827Z,41.53
2019-01-04T18:55:26.026Z,41.57
2019-01-04T18:57:56.238Z,39.30
2019-01-04T19:00:26.517Z,43.40
2019-01-04T19:02:56.966Z,39.27
2019-01-04T19:05:27.233Z,45.07
2019-01-04T19:07:57.443Z,40.73
2019-01-04T19:10:27.872Z,37.80
2019-01-04T19:12:58.121Z,35.87
2019-01-04T19:15:28.313Z,40.23
2019-01-04T19:17:58.766Z,37.47
2019-01-04T19:20:28.967Z,36.03
2019-01-04T19:22:59.431Z,38.20
2019-01-04T19:25:29.632Z,43.43
2019-01-04T19:28:00.083Z,42.23
2019-01-04T19:30:30.599Z,40.37
2019-01-04T19:33:00.813Z,42.83
2019-01-04T19:35:31.015Z,38.20
2019-01-04T19:38:01.231Z,37.17
2019-01-04T19:40:31.438Z,36.10
2019-01-04T19:43:01.890Z,38.50
2019-01-04T19:45:32.094Z,40.93
2019-01-04T19:48:02.315Z,40.50
2019-01-04T19:50:32.550Z,41.03
2019-01-04T19:53:02.754Z,40.40
2019-01-04T19:55:33.209Z,40.23
2019-01-04T19:58:03.643Z,41.27
2019-01-04T20:00:33.859Z,41.37
2019-01-04T20:03:04.056Z,39.17
2019-01-04T20:05:45.074Z,37.70
2019-01-04T20:08:35.019Z,43.17
2019-01-04T20:11:53.575Z,40.63
2019-01-04T20:15:01.585Z,39.83
2019-01-04T20:17:33.527Z,39.60
2019-01-04T20:20:17.633Z,42.00
2019-01-04T20:23:05.513Z,43.73
2019-01-04T20:25:46.431Z,41.10
2019-01-04T20:28:20.726Z,44.20
2019-01-04T20:31:01.707Z,40.53
2019-01-04T20:33:48.611Z,39.20
2019-01-04T20:36:26.295Z,44.47
2019-01-04T20:39:09.671Z,42.07
2019-01-04T20:41:57.692Z,39.40
2019-01-04T20:44:29.563Z,39.83
2019-01-04T20:47:17.535Z,41.73
2019-01-04T20:50:05.045Z,43.00
2019-01-04T20:52:45.366Z,41.03
2019-01-04T20:55:17.466Z,38.10
2019-01-04T20:58:07.222Z,45.00
2019-01-04T21:00:48.006Z,45.20
2019-01-04T21:03:25.686Z,40.93
2019-01-04T21:06:13.739Z,44.67
2019-01-04T21:09:01.587Z,40.33
2019-01-04T21:11:33.416Z,40.73
2019-01-04T21:14:19.838Z,43.80
2019-01-04T21:17:09.694Z,44.03
2019-01-04T21:19:47.326Z,40.33
2019-01-04T21:22:19.195Z,43.70
2019-01-04T21:25:06.989Z,47.60
2019-01-04T21:27:44.890Z,43.57
2019-01-04T21:30:28.603Z,42.73
2019-01-04T21:33:00.429Z,39.97
2019-01-04T21:35:34.682Z,39.30
2019-01-04T21:38:06.528Z,39.47
2019-01-04T21:40:56.537Z,40.97
2019-01-04T21:43:44.669Z,38.37
2019-01-04T21:46:19.475Z,40.40
2019-01-04T21:48:59.802Z,37.60
2019-01-04T21:51:31.899Z,36.37
2019-01-04T21:54:12.894Z,38.83
2019-01-04T21:56:44.773Z,35.37
2019-01-04T21:59:16.601Z,39.53
2019-01-04T22:01:54.643Z,36.80
2019-01-04T22:04:42.502Z,38.80
2019-01-04T22:07:14.360Z,35.93
2019-01-04T22:10:02.434Z,36.83
2019-01-04T22:12:34.532Z,39.67
2019-01-04T22:15:22.990Z,39.53
2019-01-04T22:18:13.242Z,37.90
2019-01-04T22:20:59.861Z,36.93
2019-01-04T22:23:31.731Z,36.30
2019-01-04T22:26:06.724Z,43.70
2019-01-04T22:28:47.522Z,39.67
2019-01-04T22:31:28.139Z,40.23
2019-01-04T22:34:13.483Z,40.40
2019-01-04T22:36:48.370Z,39.43
2019-01-04T22:39:22.943Z,38.33
2019-01-04T22:41:57.726Z,45.23
2019-01-04T22:44:29.831Z,37.73
2019-01-04T22:47:04.334Z,38.37
2019-01-04T22:49:51.249Z,36.60
2019-01-04T22:52:31.786Z,40.93
2019-01-04T22:55:03.654Z,39.20
2019-01-04T22:57:53.547Z,36.43
2019-01-04T23:00:31.162Z,40.80
2019-01-04T23:03:05.674Z,40.70
2019-01-04T23:05:49.226Z,45.77
2019-01-04T23:08:21.066Z,40.87
2019-01-04T23:11:08.877Z,39.23
2019-01-04T23:13:43.641Z,39.57
2019-01-04T23:16:31.568Z,37.03
2019-01-04T23:19:03.408Z,40.73
2019-01-04T23:22:03.213Z,40.00
2019-01-04T23:24:43.555Z,47.00
2019-01-04T23:27:31.317Z,39.47
2019-01-04T23:30:12.128Z,40.93
2019-01-04T23:32:43.990Z,42.07
2019-01-04T23:35:24.358Z,41.47
2019-01-04T23:38:14.378Z,40.50
2019-01-04T23:40:49.040Z,41.17
2019-01-04T23:43:36.701Z,44.50
2019-01-04T23:46:11.278Z,41.50
2019-01-04T23:48:52.222Z,46.90
2019-01-04T23:51:35.849Z,41.50
2019-01-04T23:54:16.520Z,42.00
2019-01-04T23:57:04.487Z,41.67
2019-01-04T23:59:39.486Z,41.00
